createdAt,value
2018-09-11T00:00:42.649Z,60.66
2018-09-11T00:03:12.190Z,60.80
2018-09-11T00:05:41.730Z,61.04
2018-09-11T00:08:11.265Z,60.69
2018-09-11T00:10:40.845Z,60.71
2018-09-11T00:13:10.363Z,61.41
2018-09-11T00:15:39.867Z,60.71
2018-09-11T00:18:09.388Z,61.25
2018-09-11T00:20:38.932Z,60.97
2018-09-11T00:23:08.483Z,60.38
2018-09-11T00:25:38.024Z,61.20
2018-09-11T00:28:07.749Z,60.86
2018-09-11T00:30:37.276Z,60.87
2018-09-11T00:33:06.890Z,61.34
2018-09-11T00:35:36.463Z,60.90
2018-09-11T00:38:06.068Z,60.72
2018-09-11T00:40:35.604Z,61.33
2018-09-11T00:43:05.105Z,61.54
2018-09-11T00:45:34.719Z,61.48
2018-09-11T00:48:04.323Z,60.94
2018-09-11T00:50:33.887Z,61.27
2018-09-11T00:53:03.437Z,61.01
2018-09-11T00:55:33.062Z,61.07
2018-09-11T00:58:02.605Z,61.25
2018-09-11T01:00:32.144Z,61.08
2018-09-11T01:03:01.769Z,61.70
2018-09-11T01:05:31.245Z,61.83
2018-09-11T01:08:01.065Z,61.52
2018-09-11T01:10:30.931Z,61.42
2018-09-11T01:13:00.649Z,61.42
2018-09-11T01:15:30.446Z,61.22
2018-09-11T01:18:00.223Z,61.56
2018-09-11T01:20:29.982Z,61.30
2018-09-11T01:22:59.696Z,61.55
2018-09-11T01:25:29.668Z,61.94
2018-09-11T01:27:59.365Z,61.94
2018-09-11T01:30:29.049Z,61.75
2018-09-11T01:32:58.781Z,62.41
2018-09-11T01:35:28.561Z,61.83
2018-09-11T01:37:58.305Z,61.98
2018-09-11T01:40:28.037Z,62.39
2018-09-11T01:42:57.734Z,61.92
2018-09-11T01:45:27.450Z,62.29
2018-09-11T01:47:57.246Z,61.90
2018-09-11T01:50:27.073Z,62.45
2018-09-11T01:53:03.360Z,62.79
2018-09-11T01:55:33.249Z,62.66
2018-09-11T01:58:03.017Z,62.44
2018-09-11T02:00:32.821Z,62.17
2018-09-11T02:03:02.591Z,62.93
2018-09-11T02:05:32.389Z,62.56
2018-09-11T02:08:02.227Z,63.18
2018-09-11T02:10:32.009Z,62.58
2018-09-11T02:13:01.745Z,63.11
2018-09-11T02:15:31.489Z,62.86
2018-09-11T02:18:01.242Z,63.15
2018-09-11T02:20:31.010Z,63.61
2018-09-11T02:23:00.785Z,63.08
2018-09-11T02:25:30.470Z,63.83
2018-09-11T02:28:00.177Z,63.77
2018-09-11T02:30:29.859Z,63.36
2018-09-11T02:32:59.505Z,63.99
2018-09-11T02:35:29.201Z,64.37
2018-09-11T02:37:58.883Z,64.24
2018-09-11T02:40:28.577Z,63.96
2018-09-11T02:42:58.274Z,63.72
2018-09-11T02:45:27.958Z,64.68
2018-09-11T02:47:57.725Z,63.86
2018-09-11T02:50:27.479Z,64.49
2018-09-11T02:52:57.183Z,64.10
2018-09-11T02:55:26.862Z,64.55
2018-09-11T02:57:56.565Z,64.26
2018-09-11T03:00:26.323Z,65.21
2018-09-11T03:02:56.090Z,65.20
2018-09-11T03:05:25.825Z,64.53
2018-09-11T03:07:55.515Z,64.74
2018-09-11T03:10:25.259Z,65.32
2018-09-11T03:12:55.061Z,64.99
2018-09-11T03:15:24.932Z,65.03
2018-09-11T03:17:54.647Z,64.71
2018-09-11T03:20:24.393Z,65.32
2018-09-11T03:22:54.102Z,65.80
2018-09-11T03:25:23.777Z,66.08
2018-09-11T03:27:53.470Z,66.06
2018-09-11T03:30:23.259Z,66.18
2018-09-11T03:32:52.929Z,65.83
2018-09-11T03:35:22.647Z,66.21
2018-09-11T03:37:52.583Z,65.54
2018-09-11T03:40:22.344Z,65.77
2018-09-11T03:42:52.112Z,66.36
2018-09-11T03:45:21.905Z,66.34
2018-09-11T03:47:52.712Z,66.34
2018-09-11T03:50:22.441Z,65.70
2018-09-11T03:52:52.257Z,65.97
2018-09-11T03:55:21.997Z,66.32
2018-09-11T03:57:51.846Z,66.36
2018-09-11T04:00:21.618Z,66.29
2018-09-11T04:02:51.410Z,66.15
2018-09-11T04:05:21.298Z,65.71
2018-09-11T04:07:50.978Z,66.06
2018-09-11T04:10:20.705Z,66.39
2018-09-11T04:12:50.609Z,66.14
2018-09-11T04:15:20.361Z,66.98
2018-09-11T04:17:50.103Z,66.33
2018-09-11T04:20:19.797Z,66.84
2018-09-11T04:22:49.525Z,67.02
2018-09-11T04:25:19.306Z,66.45
2018-09-11T04:27:49.013Z,66.49
2018-09-11T04:30:18.698Z,66.60
2018-09-11T04:32:48.357Z,67.27
2018-09-11T04:35:18.066Z,67.26
2018-09-11T04:37:47.763Z,67.52
2018-09-11T04:40:17.441Z,67.20
2018-09-11T04:42:47.370Z,67.09
2018-09-11T04:45:17.198Z,67.88
2018-09-11T04:47:47.029Z,67.43
2018-09-11T04:50:16.720Z,67.90
2018-09-11T04:52:46.393Z,67.49
2018-09-11T04:55:16.121Z,67.96
2018-09-11T04:57:45.861Z,67.98
2018-09-11T05:00:15.574Z,67.41
2018-09-11T05:02:45.344Z,68.21
2018-09-11T05:05:15.086Z,67.50
2018-09-11T05:07:44.855Z,67.94
2018-09-11T05:10:14.565Z,68.14
2018-09-11T05:12:44.387Z,67.58
2018-09-11T05:15:14.145Z,67.86
2018-09-11T05:17:43.872Z,67.43
2018-09-11T05:20:13.592Z,67.74
2018-09-11T05:22:43.502Z,67.80
2018-09-11T05:25:13.264Z,67.40
2018-09-11T05:27:43.024Z,67.48
2018-09-11T05:30:12.703Z,66.66
2018-09-11T05:32:42.375Z,67.01
2018-09-11T05:35:12.088Z,66.54
2018-09-11T05:37:41.786Z,66.73
2018-09-11T05:40:11.475Z,66.67
2018-09-11T05:42:41.176Z,65.80
2018-09-11T05:45:10.845Z,66.45
2018-09-11T05:47:40.604Z,66.40
2018-09-11T05:50:10.542Z,66.57
2018-09-11T05:52:40.715Z,66.68
2018-09-11T05:55:10.446Z,67.17
2018-09-11T05:57:40.134Z,67.15
2018-09-11T06:00:10.028Z,67.45
2018-09-11T06:02:39.756Z,67.63
2018-09-11T06:05:09.501Z,67.03
2018-09-11T06:07:39.176Z,66.96
2018-09-11T06:10:08.873Z,66.33
2018-09-11T06:12:38.704Z,65.87
2018-09-11T06:15:08.418Z,65.90
2018-09-11T06:17:38.133Z,65.27
2018-09-11T06:20:08.746Z,65.28
2018-09-11T06:22:38.457Z,64.81
2018-09-11T06:25:08.225Z,64.99
2018-09-11T06:27:37.919Z,64.88
2018-09-11T06:30:07.693Z,64.13
2018-09-11T06:32:37.376Z,62.95
2018-09-11T06:35:07.218Z,62.79
2018-09-11T06:37:36.988Z,62.46
2018-09-11T06:40:07.493Z,62.22
2018-09-11T06:42:37.235Z,61.37
2018-09-11T06:45:06.980Z,61.30
2018-09-11T06:47:36.692Z,60.56
2018-09-11T06:50:06.710Z,60.71
2018-09-11T06:52:36.422Z,60.44
2018-09-11T06:55:06.166Z,60.44
2018-09-11T06:57:36.704Z,59.07
2018-09-11T07:00:06.484Z,58.94
2018-09-11T07:02:36.269Z,58.38
2018-09-11T07:05:06.051Z,58.33
2018-09-11T07:07:36.336Z,57.21
2018-09-11T07:10:06.990Z,56.95
2018-09-11T07:12:36.701Z,55.75
2018-09-11T07:15:06.461Z,54.13
2018-09-11T07:17:36.185Z,52.69
2018-09-11T07:20:08.043Z,50.67
2018-09-11T07:22:37.493Z,50.12
2018-09-11T07:25:07.437Z,49.89
2018-09-11T07:27:37.165Z,50.05
2018-09-11T07:30:07.243Z,49.57
2018-09-11T07:32:36.946Z,48.06
2018-09-11T07:35:06.696Z,45.97
2018-09-11T07:37:36.638Z,43.98
2018-09-11T07:40:06.968Z,41.06
2018-09-11T07:42:36.681Z,38.37
2018-09-11T07:45:06.552Z,36.03
2018-09-11T07:47:36.314Z,34.99
2018-09-11T07:50:06.373Z,33.18
2018-09-11T07:52:36.085Z,31.79
2018-09-11T07:55:05.821Z,31.91
2018-09-11T07:57:35.577Z,30.56
2018-09-11T08:00:06.316Z,30.23
2018-09-11T08:02:36.236Z,29.31
2018-09-11T08:05:06.072Z,28.95
2018-09-11T08:07:35.759Z,29.76
2018-09-11T08:10:05.542Z,29.19
2018-09-11T08:12:35.210Z,29.05
2018-09-11T08:15:05.239Z,29.04
2018-09-11T08:17:34.938Z,29.12
2018-09-11T08:20:04.752Z,28.81
2018-09-11T08:22:46.279Z,28.31
2018-09-11T08:25:15.933Z,27.98
2018-09-11T08:27:45.625Z,26.97
2018-09-11T08:30:15.350Z,26.84
2018-09-11T08:32:45.018Z,26.38
2018-09-11T08:35:14.723Z,25.82
2018-09-11T08:37:44.404Z,25.45
2018-09-11T08:40:14.106Z,25.32
2018-09-11T08:42:43.781Z,25.89
2018-09-11T08:45:13.585Z,26.92
2018-09-11T08:47:43.257Z,26.51
2018-09-11T08:50:12.966Z,26.34
2018-09-11T08:52:42.944Z,26.33
2018-09-11T08:55:12.565Z,26.62
2018-09-11T08:57:42.280Z,26.11
2018-09-11T09:00:12.369Z,26.12
2018-09-11T09:02:42.101Z,26.57
2018-09-11T09:05:11.885Z,26.70
2018-09-11T09:07:41.563Z,26.91
2018-09-11T09:10:11.267Z,26.94
2018-09-11T09:12:40.961Z,26.44
2018-09-11T09:15:10.832Z,26.46
2018-09-11T09:17:40.491Z,26.73
2018-09-11T09:20:10.234Z,27.52
2018-09-11T09:22:39.945Z,27.67
2018-09-11T09:25:09.619Z,27.98
2018-09-11T09:27:39.388Z,27.90
2018-09-11T09:30:09.087Z,27.74
2018-09-11T09:32:38.735Z,29.14
2018-09-11T09:35:08.854Z,29.89
2018-09-11T09:37:38.588Z,30.22
2018-09-11T09:40:08.414Z,30.88
2018-09-11T09:42:38.114Z,31.59
2018-09-11T09:45:09.684Z,31.44
2018-09-11T09:47:39.351Z,31.37
2018-09-11T09:50:09.103Z,32.83
2018-09-11T09:52:39.049Z,32.64
2018-09-11T09:55:08.850Z,33.19
2018-09-11T09:57:38.534Z,32.52
2018-09-11T10:00:09.470Z,33.17
2018-09-11T10:02:39.125Z,33.32
2018-09-11T10:05:08.826Z,34.50
2018-09-11T10:07:38.513Z,34.06
2018-09-11T10:10:08.233Z,33.96
2018-09-11T10:12:37.945Z,33.46
2018-09-11T10:15:07.955Z,34.24
2018-09-11T10:17:37.697Z,32.90
2018-09-11T10:20:07.403Z,31.97
2018-09-11T10:22:37.102Z,31.18
2018-09-11T10:25:06.876Z,31.09
2018-09-11T10:27:36.611Z,31.00
2018-09-11T10:30:06.507Z,29.75
2018-09-11T10:32:36.287Z,29.65
2018-09-11T10:35:06.030Z,29.22
2018-09-11T10:37:35.802Z,27.81
2018-09-11T10:40:05.718Z,27.54
2018-09-11T10:42:35.422Z,27.46
2018-09-11T10:45:05.677Z,26.85
2018-09-11T10:47:35.249Z,27.25
2018-09-11T10:50:05.030Z,27.30
2018-09-11T10:52:34.731Z,27.86
2018-09-11T10:55:04.646Z,27.28
2018-09-11T10:57:34.357Z,27.97
2018-09-11T11:00:04.086Z,27.37
2018-09-11T11:02:34.018Z,27.64
2018-09-11T11:05:03.892Z,26.83
2018-09-11T11:07:33.624Z,26.53
2018-09-11T11:10:03.438Z,27.21
2018-09-11T11:12:33.314Z,26.86
2018-09-11T11:15:03.147Z,27.54
2018-09-11T11:17:32.994Z,27.64
2018-09-11T11:20:02.755Z,27.56
2018-09-11T11:22:32.689Z,27.83
2018-09-11T11:25:02.369Z,27.76
2018-09-11T11:27:32.252Z,27.77
2018-09-11T11:30:08.131Z,27.67
2018-09-11T11:32:37.805Z,28.16
2018-09-11T11:35:07.961Z,29.13
2018-09-11T11:37:37.778Z,28.80
2018-09-11T11:40:07.559Z,29.21
2018-09-11T11:42:37.281Z,28.63
2018-09-11T11:45:07.957Z,29.32
2018-09-11T11:47:37.639Z,29.52
2018-09-11T11:50:08.254Z,29.30
2018-09-11T11:52:38.131Z,28.89
2018-09-11T11:55:08.015Z,29.50
2018-09-11T11:57:37.719Z,29.21
2018-09-11T12:00:07.685Z,30.19
2018-09-11T12:02:37.399Z,29.08
2018-09-11T12:05:07.167Z,30.11
2018-09-11T12:07:36.886Z,29.28
2018-09-11T12:10:07.124Z,29.48
2018-09-11T12:12:36.837Z,28.77
2018-09-11T12:15:06.995Z,28.72
2018-09-11T12:17:36.673Z,28.82
2018-09-11T12:20:06.693Z,28.99
2018-09-11T12:22:36.373Z,29.93
2018-09-11T12:25:06.142Z,29.20
2018-09-11T12:27:35.946Z,30.04
2018-09-11T12:30:05.818Z,30.12
2018-09-11T12:32:35.581Z,30.31
2018-09-11T12:35:05.746Z,30.66
2018-09-11T12:37:35.519Z,29.77
2018-09-11T12:40:11.962Z,30.92
2018-09-11T12:42:41.693Z,30.37
2018-09-11T12:45:11.572Z,31.17
2018-09-11T12:47:41.803Z,31.27
2018-09-11T12:50:10.947Z,30.64
2018-09-11T12:52:40.743Z,31.42
2018-09-11T12:55:10.394Z,30.82
2018-09-11T12:57:40.113Z,30.97
2018-09-11T13:00:10.729Z,31.81
2018-09-11T13:02:40.417Z,31.74
2018-09-11T13:05:10.109Z,31.96
2018-09-11T13:07:39.938Z,31.87
2018-09-11T13:10:09.688Z,31.16
2018-09-11T13:12:39.386Z,31.77
2018-09-11T13:15:09.232Z,31.61
2018-09-11T13:17:38.957Z,32.17
2018-09-11T13:20:08.764Z,31.72
2018-09-11T13:22:38.465Z,32.62
2018-09-11T13:25:08.375Z,32.43
2018-09-11T13:27:38.138Z,31.87
2018-09-11T13:30:07.966Z,32.19
2018-09-11T13:32:37.675Z,32.28
2018-09-11T13:35:07.381Z,32.34
2018-09-11T13:37:37.117Z,32.37
2018-09-11T13:40:06.957Z,32.48
2018-09-11T13:42:36.673Z,32.86
2018-09-11T13:45:07.096Z,32.86
2018-09-11T13:47:36.864Z,32.83
2018-09-11T13:50:06.698Z,33.64
2018-09-11T13:52:36.620Z,33.00
2018-09-11T13:55:06.477Z,32.95
2018-09-11T13:57:36.397Z,33.68
2018-09-11T14:00:07.134Z,33.27
2018-09-11T14:02:36.903Z,33.87
2018-09-11T14:05:06.848Z,33.10
2018-09-11T14:07:36.820Z,33.87
2018-09-11T14:10:06.577Z,33.36
2018-09-11T14:12:36.397Z,33.10
2018-09-11T14:15:06.961Z,33.49
2018-09-11T14:17:36.721Z,33.62
2018-09-11T14:20:07.481Z,34.15
2018-09-11T14:22:37.198Z,33.29
2018-09-11T14:25:06.969Z,33.16
2018-09-11T14:27:36.742Z,34.18
2018-09-11T14:30:06.785Z,33.36
2018-09-11T14:32:36.464Z,33.26
2018-09-11T14:35:06.453Z,34.21
2018-09-11T14:37:36.145Z,33.77
2018-09-11T14:40:06.005Z,34.54
2018-09-11T14:42:35.715Z,34.40
2018-09-11T14:45:05.477Z,34.13
2018-09-11T14:47:40.242Z,34.24
2018-09-11T14:50:10.068Z,34.68
2018-09-11T14:52:39.810Z,34.01
2018-09-11T14:55:10.170Z,34.66
2018-09-11T14:57:39.875Z,34.80
2018-09-11T15:00:09.655Z,34.61
2018-09-11T15:02:39.339Z,33.86
2018-09-11T15:05:09.051Z,34.84
2018-09-11T15:07:38.791Z,34.91
2018-09-11T15:10:08.614Z,35.13
2018-09-11T15:12:38.285Z,34.88
2018-09-11T15:15:08.119Z,34.79
2018-09-11T15:17:37.806Z,34.44
2018-09-11T15:20:07.545Z,35.36
2018-09-11T15:22:37.326Z,35.10
2018-09-11T15:25:07.082Z,34.81
2018-09-11T15:27:36.764Z,34.84
2018-09-11T15:30:07.698Z,34.71
2018-09-11T15:32:38.081Z,35.11
2018-09-11T15:35:07.780Z,35.46
2018-09-11T15:37:37.475Z,35.02
2018-09-11T15:40:07.776Z,35.20
2018-09-11T15:42:37.492Z,35.93
2018-09-11T15:45:07.231Z,35.68
2018-09-11T15:47:36.995Z,35.61
2018-09-11T15:50:06.760Z,35.14
2018-09-11T15:52:36.449Z,35.50
2018-09-11T15:55:06.317Z,34.85
2018-09-11T15:57:36.049Z,34.70
2018-09-11T16:00:06.159Z,35.54
2018-09-11T16:02:36.190Z,35.48
2018-09-11T16:05:05.934Z,34.94
2018-09-11T16:07:35.661Z,35.53
2018-09-11T16:10:06.005Z,35.59
2018-09-11T16:12:35.715Z,34.92
2018-09-11T16:15:05.556Z,34.91
2018-09-11T16:17:35.339Z,35.15
2018-09-11T16:20:05.318Z,35.55
2018-09-11T16:22:35.037Z,34.84
2018-09-11T16:25:04.834Z,35.41
2018-09-11T16:27:34.521Z,35.45
2018-09-11T16:30:04.311Z,35.19
2018-09-11T16:32:34.096Z,34.51
2018-09-11T16:35:03.826Z,34.39
2018-09-11T16:37:33.564Z,35.12
2018-09-11T16:40:05.163Z,34.85
2018-09-11T16:42:34.827Z,35.05
2018-09-11T16:45:04.593Z,34.66
2018-09-11T16:47:34.454Z,34.79
2018-09-11T16:50:04.297Z,34.90
2018-09-11T16:52:34.002Z,35.91
2018-09-11T16:55:04.030Z,35.85
2018-09-11T16:57:33.761Z,35.59
2018-09-11T17:00:03.569Z,35.70
2018-09-11T17:02:33.293Z,35.91
2018-09-11T17:05:03.001Z,36.40
2018-09-11T17:07:32.810Z,37.17
2018-09-11T17:10:02.582Z,37.00
2018-09-11T17:12:32.313Z,37.51
2018-09-11T17:15:02.061Z,37.16
2018-09-11T17:17:31.779Z,37.73
2018-09-11T17:20:01.481Z,37.91
2018-09-11T17:22:31.202Z,38.51
2018-09-11T17:25:00.913Z,37.96
2018-09-11T17:27:30.762Z,38.56
2018-09-11T17:30:00.465Z,38.97
2018-09-11T17:32:30.271Z,38.78
2018-09-11T17:34:59.990Z,39.06
2018-09-11T17:37:29.692Z,39.85
2018-09-11T17:39:59.429Z,39.33
2018-09-11T17:42:29.122Z,40.08
2018-09-11T17:44:58.962Z,40.38
2018-09-11T17:47:28.787Z,40.09
2018-09-11T17:49:58.473Z,40.10
2018-09-11T17:52:28.187Z,40.65
2018-09-11T17:54:57.954Z,40.08
2018-09-11T17:57:27.750Z,40.82
2018-09-11T17:59:57.460Z,40.22
2018-09-11T18:02:27.257Z,40.84
2018-09-11T18:04:56.963Z,41.22
2018-09-11T18:07:26.674Z,41.36
2018-09-11T18:09:56.386Z,41.24
2018-09-11T18:12:26.066Z,41.39
2018-09-11T18:14:55.848Z,41.35
2018-09-11T18:17:25.741Z,41.81
2018-09-11T18:19:55.623Z,41.34
2018-09-11T18:22:25.383Z,42.11
2018-09-11T18:24:55.419Z,41.47
2018-09-11T18:27:25.173Z,42.30
2018-09-11T18:29:54.949Z,42.25
2018-09-11T18:32:24.654Z,42.13
2018-09-11T18:34:54.448Z,42.42
2018-09-11T18:37:24.200Z,42.64
2018-09-11T18:39:53.995Z,42.16
2018-09-11T18:42:23.752Z,42.11
2018-09-11T18:44:53.614Z,42.47
2018-09-11T18:47:23.293Z,42.75
2018-09-11T18:49:53.049Z,42.32
2018-09-11T18:52:22.726Z,42.77
2018-09-11T18:54:52.473Z,42.89
2018-09-11T18:57:22.174Z,42.77
2018-09-11T18:59:51.893Z,42.19
2018-09-11T19:02:21.598Z,42.28
2018-09-11T19:04:51.345Z,42.85
2018-09-11T19:07:21.186Z,42.29
2018-09-11T19:09:50.930Z,43.09
2018-09-11T19:12:20.697Z,42.71
2018-09-11T19:14:50.402Z,42.41
2018-09-11T19:17:20.066Z,42.38
2018-09-11T19:19:49.840Z,42.52
2018-09-11T19:22:19.547Z,42.28
2018-09-11T19:24:49.291Z,42.35
2018-09-11T19:27:19.003Z,41.64
2018-09-11T19:29:48.693Z,41.63
2018-09-11T19:32:18.405Z,42.25
2018-09-11T19:34:48.139Z,41.45
2018-09-11T19:37:18.380Z,42.18
2018-09-11T19:39:48.083Z,42.13
2018-09-11T19:42:17.774Z,41.17
2018-09-11T19:44:47.502Z,41.56
2018-09-11T19:47:17.205Z,42.05
2018-09-11T19:49:46.911Z,42.32
2018-09-11T19:52:16.634Z,42.32
2018-09-11T19:54:46.368Z,42.26
2018-09-11T19:57:16.066Z,41.67
2018-09-11T19:59:45.755Z,41.85
2018-09-11T20:02:15.472Z,42.61
2018-09-11T20:04:45.306Z,42.95
2018-09-11T20:07:15.005Z,42.13
2018-09-11T20:09:44.806Z,42.51
2018-09-11T20:12:14.593Z,43.04
2018-09-11T20:14:44.332Z,43.64
2018-09-11T20:17:14.010Z,43.67
2018-09-11T20:19:43.731Z,43.72
2018-09-11T20:22:13.466Z,44.17
2018-09-11T20:24:43.665Z,44.33
2018-09-11T20:27:13.567Z,44.04
2018-09-11T20:29:43.329Z,44.33
2018-09-11T20:32:13.041Z,44.55
2018-09-11T20:34:42.854Z,44.99
2018-09-11T20:37:13.242Z,45.53
2018-09-11T20:39:43.193Z,45.45
2018-09-11T20:42:12.985Z,45.81
2018-09-11T20:44:42.686Z,45.57
2018-09-11T20:47:12.373Z,45.28
2018-09-11T20:49:42.070Z,45.95
2018-09-11T20:52:11.744Z,45.47
2018-09-11T20:54:41.537Z,46.14
2018-09-11T20:57:11.234Z,45.66
2018-09-11T20:59:41.291Z,45.93
2018-09-11T21:02:11.177Z,46.16
2018-09-11T21:04:40.895Z,45.87
2018-09-11T21:07:10.725Z,46.65
2018-09-11T21:09:40.677Z,46.62
2018-09-11T21:12:10.589Z,46.34
2018-09-11T21:14:40.273Z,46.12
2018-09-11T21:17:10.298Z,46.60
2018-09-11T21:19:40.129Z,46.89
2018-09-11T21:22:09.852Z,46.14
2018-09-11T21:24:39.637Z,46.60
2018-09-11T21:27:09.321Z,46.65
2018-09-11T21:29:39.665Z,47.28
2018-09-11T21:32:09.333Z,47.79
2018-09-11T21:34:39.048Z,47.46
2018-09-11T21:37:08.725Z,48.03
2018-09-11T21:39:38.467Z,47.69
2018-09-11T21:42:08.169Z,48.17
2018-09-11T21:44:37.862Z,48.97
2018-09-11T21:47:07.677Z,49.34
2018-09-11T21:49:37.388Z,48.84
2018-09-11T21:52:07.708Z,49.69
2018-09-11T21:54:37.538Z,49.97
2018-09-11T21:57:07.342Z,49.50
2018-09-11T21:59:40.154Z,49.79
2018-09-11T22:02:09.953Z,50.41
2018-09-11T22:04:39.817Z,49.99
2018-09-11T22:07:09.541Z,51.04
2018-09-11T22:09:39.353Z,51.13
2018-09-11T22:12:09.132Z,50.58
2018-09-11T22:14:38.872Z,51.45
2018-09-11T22:17:08.579Z,51.57
2018-09-11T22:19:38.249Z,51.36
2018-09-11T22:22:07.977Z,51.40
2018-09-11T22:24:37.693Z,51.42
2018-09-11T22:27:07.649Z,51.72
2018-09-11T22:29:37.365Z,51.87
2018-09-11T22:32:07.018Z,52.67
2018-09-11T22:34:36.734Z,52.00
2018-09-11T22:37:06.476Z,52.95
2018-09-11T22:39:36.145Z,52.96
2018-09-11T22:42:05.894Z,53.08
2018-09-11T22:44:35.574Z,52.79
2018-09-11T22:47:05.274Z,53.14
2018-09-11T22:49:34.940Z,53.86
2018-09-11T22:52:04.635Z,53.25
2018-09-11T22:54:34.301Z,54.22
2018-09-11T22:57:04.066Z,53.89
2018-09-11T22:59:33.717Z,53.75
2018-09-11T23:02:03.460Z,54.35
2018-09-11T23:04:33.116Z,54.04
2018-09-11T23:07:02.803Z,54.92
2018-09-11T23:09:32.493Z,54.28
2018-09-11T23:12:02.183Z,54.27
2018-09-11T23:14:31.837Z,55.05
2018-09-11T23:17:01.490Z,54.44
2018-09-11T23:19:31.272Z,55.43
2018-09-11T23:22:01.164Z,55.01
2018-09-11T23:24:30.904Z,54.58
2018-09-11T23:27:00.559Z,55.10
2018-09-11T23:29:30.294Z,55.66
2018-09-11T23:32:00.196Z,55.59
2018-09-11T23:34:29.874Z,55.83
2018-09-11T23:36:59.525Z,55.79
2018-09-11T23:39:29.193Z,55.70
2018-09-11T23:41:58.930Z,55.63
2018-09-11T23:44:28.687Z,56.08
2018-09-11T23:46:58.345Z,56.45
2018-09-11T23:49:28.307Z,56.66
2018-09-11T23:51:58.011Z,55.85
2018-09-11T23:54:27.677Z,56.64
2018-09-11T23:56:57.441Z,56.22
2018-09-11T23:59:27.085Z,56.37
